sensor_id;sensor_type;location;lat;lon;timestamp;P1;durP1;ratioP1;P2;durP2;ratioP2
67597;SDS011;62026;39.230;9.122;2023-05-14T00:02:21;3.67;;;1.38;;
67597;SDS011;62026;39.230;9.122;2023-05-14T00:04:47;3.03;;;1.30;;
67597;SDS011;62026;39.230;9.122;2023-05-14T00:07:13;7.85;;;1.40;;
67597;SDS011;62026;39.230;9.122;2023-05-14T00:09:39;2.70;;;1.40;;
67597;SDS011;62026;39.230;9.122;2023-05-14T00:12:05;2.95;;;1.10;;
67597;SDS011;62026;39.230;9.122;2023-05-14T00:14:31;4.57;;;1.20;;
67597;SDS011;62026;39.230;9.122;2023-05-14T00:16:57;4.60;;;1.70;;
67597;SDS011;62026;39.230;9.122;2023-05-14T00:19:24;7.50;;;1.48;;
67597;SDS011;62026;39.230;9.122;2023-05-14T00:21:50;2.15;;;1.25;;
67597;SDS011;62026;39.230;9.122;2023-05-14T00:24:16;4.28;;;1.08;;
67597;SDS011;62026;39.230;9.122;2023-05-14T00:26:43;2.47;;;1.10;;
67597;SDS011;62026;39.230;9.122;2023-05-14T00:29:09;3.30;;;1.00;;
67597;SDS011;62026;39.230;9.122;2023-05-14T00:31:35;2.03;;;0.93;;
67597;SDS011;62026;39.230;9.122;2023-05-14T00:34:01;2.70;;;1.17;;
67597;SDS011;62026;39.230;9.122;2023-05-14T00:36:27;2.13;;;0.80;;
67597;SDS011;62026;39.230;9.122;2023-05-14T00:38:53;4.88;;;1.08;;
67597;SDS011;62026;39.230;9.122;2023-05-14T00:41:20;2.20;;;0.80;;
67597;SDS011;62026;39.230;9.122;2023-05-14T00:43:47;1.27;;;0.70;;
67597;SDS011;62026;39.230;9.122;2023-05-14T00:46:13;4.68;;;0.85;;
67597;SDS011;62026;39.230;9.122;2023-05-14T00:48:39;2.97;;;0.80;;
67597;SDS011;62026;39.230;9.122;2023-05-14T00:51:06;2.65;;;1.45;;
67597;SDS011;62026;39.230;9.122;2023-05-14T00:53:32;1.42;;;0.80;;
67597;SDS011;62026;39.230;9.122;2023-05-14T00:56:00;6.28;;;1.00;;
67597;SDS011;62026;39.230;9.122;2023-05-14T00:58:27;4.03;;;1.20;;
67597;SDS011;62026;39.230;9.122;2023-05-14T01:00:53;2.25;;;0.82;;
67597;SDS011;62026;39.230;9.122;2023-05-14T01:03:19;6.05;;;1.38;;
67597;SDS011;62026;39.230;9.122;2023-05-14T01:08:56;4.35;;;1.70;;
67597;SDS011;62026;39.230;9.122;2023-05-14T01:11:35;4.30;;;1.52;;
67597;SDS011;62026;39.230;9.122;2023-05-14T01:17:13;3.78;;;1.85;;
67597;SDS011;62026;39.230;9.122;2023-05-14T01:19:44;3.20;;;1.35;;
67597;SDS011;62026;39.230;9.122;2023-05-14T01:22:12;2.90;;;1.30;;
67597;SDS011;62026;39.230;9.122;2023-05-14T01:24:39;5.68;;;1.60;;
67597;SDS011;62026;39.230;9.122;2023-05-14T01:27:06;10.25;;;3.75;;
67597;SDS011;62026;39.230;9.122;2023-05-14T01:29:50;14.32;;;5.80;;
67597;SDS011;62026;39.230;9.122;2023-05-14T01:32:27;21.08;;;7.70;;
67597;SDS011;62026;39.230;9.122;2023-05-14T01:34:55;15.85;;;7.35;;
67597;SDS011;62026;39.230;9.122;2023-05-14T01:37:26;14.93;;;6.10;;
67597;SDS011;62026;39.230;9.122;2023-05-14T01:39:54;15.77;;;5.63;;
67597;SDS011;62026;39.230;9.122;2023-05-14T01:42:21;16.33;;;5.22;;
67597;SDS011;62026;39.230;9.122;2023-05-14T01:44:48;12.30;;;4.43;;
67597;SDS011;62026;39.230;9.122;2023-05-14T01:47:14;8.60;;;3.33;;
67597;SDS011;62026;39.230;9.122;2023-05-14T01:49:40;6.80;;;3.65;;
67597;SDS011;62026;39.230;9.122;2023-05-14T01:52:06;7.90;;;3.50;;
67597;SDS011;62026;39.230;9.122;2023-05-14T01:54:32;6.70;;;2.55;;
67597;SDS011;62026;39.230;9.122;2023-05-14T01:56:58;7.35;;;2.10;;
67597;SDS011;62026;39.230;9.122;2023-05-14T01:59:24;5.13;;;2.45;;
67597;SDS011;62026;39.230;9.122;2023-05-14T02:01:50;4.00;;;1.90;;
67597;SDS011;62026;39.230;9.122;2023-05-14T02:04:16;4.80;;;2.10;;
67597;SDS011;62026;39.230;9.122;2023-05-14T02:06:43;3.10;;;1.67;;
67597;SDS011;62026;39.230;9.122;2023-05-14T02:09:09;4.28;;;1.55;;
67597;SDS011;62026;39.230;9.122;2023-05-14T02:11:35;5.28;;;1.33;;
67597;SDS011;62026;39.230;9.122;2023-05-14T02:14:01;2.78;;;1.45;;
67597;SDS011;62026;39.230;9.122;2023-05-14T02:16:27;3.50;;;1.30;;
67597;SDS011;62026;39.230;9.122;2023-05-14T02:18:53;4.32;;;1.20;;
67597;SDS011;62026;39.230;9.122;2023-05-14T02:21:19;2.80;;;1.10;;
67597;SDS011;62026;39.230;9.122;2023-05-14T02:23:46;3.45;;;1.23;;
67597;SDS011;62026;39.230;9.122;2023-05-14T02:26:13;3.60;;;1.00;;
67597;SDS011;62026;39.230;9.122;2023-05-14T02:28:39;3.08;;;1.00;;
67597;SDS011;62026;39.230;9.122;2023-05-14T02:31:05;3.13;;;1.08;;
67597;SDS011;62026;39.230;9.122;2023-05-14T02:33:31;3.60;;;1.00;;
67597;SDS011;62026;39.230;9.122;2023-05-14T02:35:57;3.00;;;0.90;;
67597;SDS011;62026;39.230;9.122;2023-05-14T02:38:24;2.30;;;0.90;;
67597;SDS011;62026;39.230;9.122;2023-05-14T02:40:50;3.45;;;0.88;;
67597;SDS011;62026;39.230;9.122;2023-05-14T02:43:16;2.65;;;1.10;;
67597;SDS011;62026;39.230;9.122;2023-05-14T02:45:42;4.30;;;0.80;;
67597;SDS011;62026;39.230;9.122;2023-05-14T02:48:08;1.90;;;0.75;;
67597;SDS011;62026;39.230;9.122;2023-05-14T02:50:34;2.25;;;0.70;;
67597;SDS011;62026;39.230;9.122;2023-05-14T02:53:00;3.42;;;0.70;;
67597;SDS011;62026;39.230;9.122;2023-05-14T02:55:26;2.38;;;0.90;;
67597;SDS011;62026;39.230;9.122;2023-05-14T02:57:52;2.35;;;0.73;;
67597;SDS011;62026;39.230;9.122;2023-05-14T03:00:18;1.02;;;0.60;;
67597;SDS011;62026;39.230;9.122;2023-05-14T03:02:44;1.55;;;0.80;;
67597;SDS011;62026;39.230;9.122;2023-05-14T03:05:10;3.88;;;0.90;;
67597;SDS011;62026;39.230;9.122;2023-05-14T03:07:36;0.70;;;0.60;;
67597;SDS011;62026;39.230;9.122;2023-05-14T03:10:02;1.55;;;0.85;;
67597;SDS011;62026;39.230;9.122;2023-05-14T03:12:30;2.40;;;0.90;;
67597;SDS011;62026;39.230;9.122;2023-05-14T03:14:55;2.10;;;0.90;;
67597;SDS011;62026;39.230;9.122;2023-05-14T03:17:22;1.73;;;0.80;;
67597;SDS011;62026;39.230;9.122;2023-05-14T03:19:48;3.85;;;0.80;;
67597;SDS011;62026;39.230;9.122;2023-05-14T03:22:14;3.75;;;0.85;;
67597;SDS011;62026;39.230;9.122;2023-05-14T03:24:40;6.15;;;0.77;;
67597;SDS011;62026;39.230;9.122;2023-05-14T03:27:06;3.95;;;0.82;;
67597;SDS011;62026;39.230;9.122;2023-05-14T03:29:32;1.05;;;0.80;;
67597;SDS011;62026;39.230;9.122;2023-05-14T03:31:58;2.47;;;0.90;;
67597;SDS011;62026;39.230;9.122;2023-05-14T03:34:24;2.50;;;1.20;;
67597;SDS011;62026;39.230;9.122;2023-05-14T03:36:50;4.00;;;1.05;;
67597;SDS011;62026;39.230;9.122;2023-05-14T03:39:16;2.55;;;1.35;;
67597;SDS011;62026;39.230;9.122;2023-05-14T03:41:46;2.20;;;0.90;;
67597;SDS011;62026;39.230;9.122;2023-05-14T03:44:12;3.83;;;1.20;;
67597;SDS011;62026;39.230;9.122;2023-05-14T03:46:38;2.58;;;1.00;;
67597;SDS011;62026;39.230;9.122;2023-05-14T03:49:05;6.70;;;1.30;;
67597;SDS011;62026;39.230;9.122;2023-05-14T03:51:33;2.13;;;1.10;;
67597;SDS011;62026;39.230;9.122;2023-05-14T03:53:59;4.45;;;1.15;;
67597;SDS011;62026;39.230;9.122;2023-05-14T03:56:26;2.50;;;0.98;;
67597;SDS011;62026;39.230;9.122;2023-05-14T03:58:51;1.33;;;0.77;;
67597;SDS011;62026;39.230;9.122;2023-05-14T04:01:18;3.22;;;0.90;;
67597;SDS011;62026;39.230;9.122;2023-05-14T04:03:44;1.55;;;0.80;;
67597;SDS011;62026;39.230;9.122;2023-05-14T04:06:12;3.08;;;1.38;;
67597;SDS011;62026;39.230;9.122;2023-05-14T04:08:37;7.00;;;0.80;;
67597;SDS011;62026;39.230;9.122;2023-05-14T04:11:04;3.33;;;1.08;;
67597;SDS011;62026;39.230;9.122;2023-05-14T04:13:30;2.25;;;0.80;;
67597;SDS011;62026;39.230;9.122;2023-05-14T04:15:56;1.88;;;0.85;;
67597;SDS011;62026;39.230;9.122;2023-05-14T04:18:22;2.08;;;0.80;;
67597;SDS011;62026;39.230;9.122;2023-05-14T04:20:49;2.45;;;0.90;;
67597;SDS011;62026;39.230;9.122;2023-05-14T04:23:15;1.20;;;0.80;;
67597;SDS011;62026;39.230;9.122;2023-05-14T04:25:41;2.03;;;0.90;;
67597;SDS011;62026;39.230;9.122;2023-05-14T04:28:07;2.35;;;0.93;;
67597;SDS011;62026;39.230;9.122;2023-05-14T04:30:33;4.75;;;0.93;;
67597;SDS011;62026;39.230;9.122;2023-05-14T04:32:59;5.53;;;1.00;;
67597;SDS011;62026;39.230;9.122;2023-05-14T04:35:25;3.00;;;1.02;;
67597;SDS011;62026;39.230;9.122;2023-05-14T04:37:51;1.15;;;0.70;;
67597;SDS011;62026;39.230;9.122;2023-05-14T04:40:17;3.55;;;0.60;;
67597;SDS011;62026;39.230;9.122;2023-05-14T04:42:43;1.20;;;0.80;;
67597;SDS011;62026;39.230;9.122;2023-05-14T04:45:10;2.05;;;0.65;;
67597;SDS011;62026;39.230;9.122;2023-05-14T04:47:38;1.35;;;0.80;;
67597;SDS011;62026;39.230;9.122;2023-05-14T04:50:04;4.22;;;0.82;;
67597;SDS011;62026;39.230;9.122;2023-05-14T04:52:31;1.58;;;0.70;;
67597;SDS011;62026;39.230;9.122;2023-05-14T04:54:57;3.95;;;0.82;;
67597;SDS011;62026;39.230;9.122;2023-05-14T04:57:23;5.10;;;0.88;;
67597;SDS011;62026;39.230;9.122;2023-05-14T04:59:49;3.63;;;0.75;;
67597;SDS011;62026;39.230;9.122;2023-05-14T05:02:15;0.60;;;0.60;;
67597;SDS011;62026;39.230;9.122;2023-05-14T05:04:41;2.38;;;0.80;;
67597;SDS011;62026;39.230;9.122;2023-05-14T05:07:07;1.45;;;0.60;;
67597;SDS011;62026;39.230;9.122;2023-05-14T05:09:33;0.77;;;0.50;;
67597;SDS011;62026;39.230;9.122;2023-05-14T05:11:59;1.58;;;0.70;;
67597;SDS011;62026;39.230;9.122;2023-05-14T05:14:26;2.50;;;0.70;;
67597;SDS011;62026;39.230;9.122;2023-05-14T05:16:52;1.17;;;0.80;;
67597;SDS011;62026;39.230;9.122;2023-05-14T05:19:18;2.47;;;0.70;;
67597;SDS011;62026;39.230;9.122;2023-05-14T05:21:43;2.63;;;0.75;;
67597;SDS011;62026;39.230;9.122;2023-05-14T05:24:09;0.82;;;0.60;;
67597;SDS011;62026;39.230;9.122;2023-05-14T05:26:37;1.42;;;0.80;;
67597;SDS011;62026;39.230;9.122;2023-05-14T05:29:03;2.15;;;0.90;;
67597;SDS011;62026;39.230;9.122;2023-05-14T05:31:30;1.63;;;0.90;;
67597;SDS011;62026;39.230;9.122;2023-05-14T05:33:57;1.88;;;0.90;;
67597;SDS011;62026;39.230;9.122;2023-05-14T05:36:25;1.20;;;0.70;;
67597;SDS011;62026;39.230;9.122;2023-05-14T05:38:51;2.92;;;0.95;;
67597;SDS011;62026;39.230;9.122;2023-05-14T05:41:17;3.75;;;0.90;;
67597;SDS011;62026;39.230;9.122;2023-05-14T05:43:43;2.53;;;0.93;;
67597;SDS011;62026;39.230;9.122;2023-05-14T05:46:09;2.03;;;0.73;;
67597;SDS011;62026;39.230;9.122;2023-05-14T05:48:36;3.60;;;0.68;;
67597;SDS011;62026;39.230;9.122;2023-05-14T05:51:02;3.25;;;1.00;;
67597;SDS011;62026;39.230;9.122;2023-05-14T05:53:28;1.73;;;1.02;;
67597;SDS011;62026;39.230;9.122;2023-05-14T05:55:54;1.65;;;1.00;;
67597;SDS011;62026;39.230;9.122;2023-05-14T05:58:20;3.75;;;1.10;;
67597;SDS011;62026;39.230;9.122;2023-05-14T06:00:46;1.35;;;0.60;;
67597;SDS011;62026;39.230;9.122;2023-05-14T06:03:12;2.22;;;0.68;;
67597;SDS011;62026;39.230;9.122;2023-05-14T06:05:38;2.50;;;0.80;;
67597;SDS011;62026;39.230;9.122;2023-05-14T06:08:05;2.50;;;0.90;;
67597;SDS011;62026;39.230;9.122;2023-05-14T06:10:32;0.63;;;0.60;;
67597;SDS011;62026;39.230;9.122;2023-05-14T06:12:58;3.92;;;0.70;;
67597;SDS011;62026;39.230;9.122;2023-05-14T06:15:24;1.50;;;0.77;;
67597;SDS011;62026;39.230;9.122;2023-05-14T06:17:50;3.17;;;0.93;;
67597;SDS011;62026;39.230;9.122;2023-05-14T06:20:16;2.03;;;0.80;;
67597;SDS011;62026;39.230;9.122;2023-05-14T06:22:43;2.92;;;0.90;;
67597;SDS011;62026;39.230;9.122;2023-05-14T06:25:09;1.50;;;0.57;;
67597;SDS011;62026;39.230;9.122;2023-05-14T06:27:35;2.42;;;0.95;;
67597;SDS011;62026;39.230;9.122;2023-05-14T06:30:01;2.00;;;0.85;;
67597;SDS011;62026;39.230;9.122;2023-05-14T06:32:28;1.90;;;1.00;;
67597;SDS011;62026;39.230;9.122;2023-05-14T06:34:53;5.45;;;2.10;;
67597;SDS011;62026;39.230;9.122;2023-05-14T06:37:19;8.18;;;3.42;;
67597;SDS011;62026;39.230;9.122;2023-05-14T06:39:45;8.00;;;3.17;;
67597;SDS011;62026;39.230;9.122;2023-05-14T06:42:17;5.75;;;2.15;;
67597;SDS011;62026;39.230;9.122;2023-05-14T06:44:43;5.32;;;1.60;;
67597;SDS011;62026;39.230;9.122;2023-05-14T06:47:09;9.15;;;1.50;;
67597;SDS011;62026;39.230;9.122;2023-05-14T06:49:36;1.75;;;0.70;;
67597;SDS011;62026;39.230;9.122;2023-05-14T06:52:02;1.95;;;0.90;;
67597;SDS011;62026;39.230;9.122;2023-05-14T06:54:29;1.92;;;0.90;;
67597;SDS011;62026;39.230;9.122;2023-05-14T06:56:55;2.83;;;1.00;;
67597;SDS011;62026;39.230;9.122;2023-05-14T06:59:21;5.18;;;0.85;;
67597;SDS011;62026;39.230;9.122;2023-05-14T07:01:47;2.13;;;0.57;;
67597;SDS011;62026;39.230;9.122;2023-05-14T07:04:13;2.10;;;0.90;;
67597;SDS011;62026;39.230;9.122;2023-05-14T07:06:39;5.18;;;1.50;;
67597;SDS011;62026;39.230;9.122;2023-05-14T07:09:05;4.22;;;1.23;;
67597;SDS011;62026;39.230;9.122;2023-05-14T07:11:32;4.57;;;1.17;;
67597;SDS011;62026;39.230;9.122;2023-05-14T07:13:58;3.58;;;1.20;;
67597;SDS011;62026;39.230;9.122;2023-05-14T07:16:25;2.33;;;0.90;;
67597;SDS011;62026;39.230;9.122;2023-05-14T07:18:52;4.10;;;1.45;;
67597;SDS011;62026;39.230;9.122;2023-05-14T07:21:18;7.28;;;1.92;;
67597;SDS011;62026;39.230;9.122;2023-05-14T07:23:44;8.35;;;3.00;;
67597;SDS011;62026;39.230;9.122;2023-05-14T07:26:10;5.55;;;2.50;;
67597;SDS011;62026;39.230;9.122;2023-05-14T07:28:36;3.05;;;1.20;;
67597;SDS011;62026;39.230;9.122;2023-05-14T07:31:01;3.45;;;1.20;;
67597;SDS011;62026;39.230;9.122;2023-05-14T07:33:35;2.30;;;0.90;;
67597;SDS011;62026;39.230;9.122;2023-05-14T07:36:02;4.13;;;0.93;;
67597;SDS011;62026;39.230;9.122;2023-05-14T07:38:29;2.35;;;0.95;;
67597;SDS011;62026;39.230;9.122;2023-05-14T07:40:56;5.13;;;1.23;;
67597;SDS011;62026;39.230;9.122;2023-05-14T07:43:21;4.05;;;0.88;;
67597;SDS011;62026;39.230;9.122;2023-05-14T07:45:48;2.67;;;0.98;;
67597;SDS011;62026;39.230;9.122;2023-05-14T07:48:13;2.22;;;0.85;;
67597;SDS011;62026;39.230;9.122;2023-05-14T07:50:39;1.95;;;0.90;;
67597;SDS011;62026;39.230;9.122;2023-05-14T07:53:05;1.58;;;0.65;;
67597;SDS011;62026;39.230;9.122;2023-05-14T07:55:32;1.42;;;0.65;;
67597;SDS011;62026;39.230;9.122;2023-05-14T07:57:58;2.90;;;0.98;;
67597;SDS011;62026;39.230;9.122;2023-05-14T08:00:24;2.70;;;1.00;;
67597;SDS011;62026;39.230;9.122;2023-05-14T08:02:50;4.55;;;0.90;;
67597;SDS011;62026;39.230;9.122;2023-05-14T08:05:16;3.58;;;0.90;;
67597;SDS011;62026;39.230;9.122;2023-05-14T08:07:43;2.65;;;0.80;;
67597;SDS011;62026;39.230;9.122;2023-05-14T08:10:09;3.20;;;0.80;;
67597;SDS011;62026;39.230;9.122;2023-05-14T08:12:35;2.95;;;0.80;;
67597;SDS011;62026;39.230;9.122;2023-05-14T08:15:01;1.92;;;1.00;;
67597;SDS011;62026;39.230;9.122;2023-05-14T08:17:28;3.00;;;0.80;;
67597;SDS011;62026;39.230;9.122;2023-05-14T08:19:54;2.05;;;0.70;;
67597;SDS011;62026;39.230;9.122;2023-05-14T08:22:20;2.42;;;0.70;;
67597;SDS011;62026;39.230;9.122;2023-05-14T08:24:46;2.90;;;0.70;;
67597;SDS011;62026;39.230;9.122;2023-05-14T08:27:12;1.67;;;0.75;;
67597;SDS011;62026;39.230;9.122;2023-05-14T08:29:38;2.83;;;0.70;;
67597;SDS011;62026;39.230;9.122;2023-05-14T08:32:04;2.13;;;0.77;;
67597;SDS011;62026;39.230;9.122;2023-05-14T08:34:30;3.15;;;0.82;;
67597;SDS011;62026;39.230;9.122;2023-05-14T08:36:56;2.95;;;0.65;;
67597;SDS011;62026;39.230;9.122;2023-05-14T08:39:22;3.42;;;0.80;;
67597;SDS011;62026;39.230;9.122;2023-05-14T08:41:48;2.92;;;0.65;;
67597;SDS011;62026;39.230;9.122;2023-05-14T08:44:18;2.50;;;0.90;;
67597;SDS011;62026;39.230;9.122;2023-05-14T08:46:59;3.45;;;1.23;;
67597;SDS011;62026;39.230;9.122;2023-05-14T08:52:05;1.35;;;0.50;;
67597;SDS011;62026;39.230;9.122;2023-05-14T08:54:33;2.72;;;0.60;;
67597;SDS011;62026;39.230;9.122;2023-05-14T08:57:01;2.40;;;0.90;;
67597;SDS011;62026;39.230;9.122;2023-05-14T08:59:29;5.47;;;1.55;;
67597;SDS011;62026;39.230;9.122;2023-05-14T09:01:55;5.57;;;0.98;;
67597;SDS011;62026;39.230;9.122;2023-05-14T09:04:25;3.10;;;1.00;;
67597;SDS011;62026;39.230;9.122;2023-05-14T09:06:52;3.75;;;0.90;;
67597;SDS011;62026;39.230;9.122;2023-05-14T09:09:19;5.07;;;0.80;;
67597;SDS011;62026;39.230;9.122;2023-05-14T09:11:47;1.55;;;0.70;;
67597;SDS011;62026;39.230;9.122;2023-05-14T09:14:15;7.30;;;2.60;;
67597;SDS011;62026;39.230;9.122;2023-05-14T09:16:46;5.28;;;1.13;;
67597;SDS011;62026;39.230;9.122;2023-05-14T09:19:14;3.95;;;0.73;;
67597;SDS011;62026;39.230;9.122;2023-05-14T09:21:46;3.55;;;0.60;;
67597;SDS011;62026;39.230;9.122;2023-05-14T09:24:20;1.92;;;0.50;;
67597;SDS011;62026;39.230;9.122;2023-05-14T09:26:52;2.72;;;0.80;;
67597;SDS011;62026;39.230;9.122;2023-05-14T09:29:20;2.03;;;0.60;;
67597;SDS011;62026;39.230;9.122;2023-05-14T09:31:50;2.13;;;0.65;;
67597;SDS011;62026;39.230;9.122;2023-05-14T09:34:28;1.33;;;0.60;;
67597;SDS011;62026;39.230;9.122;2023-05-14T09:37:02;3.00;;;1.25;;
67597;SDS011;62026;39.230;9.122;2023-05-14T09:39:31;1.65;;;0.90;;
67597;SDS011;62026;39.230;9.122;2023-05-14T09:41:59;2.03;;;0.73;;
67597;SDS011;62026;39.230;9.122;2023-05-14T09:44:26;4.35;;;1.73;;
67597;SDS011;62026;39.230;9.122;2023-05-14T09:46:52;3.58;;;1.00;;
67597;SDS011;62026;39.230;9.122;2023-05-14T09:49:19;2.05;;;0.70;;
67597;SDS011;62026;39.230;9.122;2023-05-14T09:51:47;4.88;;;0.93;;
67597;SDS011;62026;39.230;9.122;2023-05-14T09:54:14;2.08;;;1.00;;
67597;SDS011;62026;39.230;9.122;2023-05-14T09:56:41;1.98;;;0.82;;
67597;SDS011;62026;39.230;9.122;2023-05-14T09:59:08;2.67;;;1.02;;
67597;SDS011;62026;39.230;9.122;2023-05-14T10:01:35;3.30;;;0.70;;
67597;SDS011;62026;39.230;9.122;2023-05-14T10:04:02;3.05;;;0.75;;
67597;SDS011;62026;39.230;9.122;2023-05-14T10:06:32;3.03;;;0.90;;
67597;SDS011;62026;39.230;9.122;2023-05-14T10:09:03;1.95;;;0.70;;
67597;SDS011;62026;39.230;9.122;2023-05-14T10:11:37;1.13;;;0.80;;
67597;SDS011;62026;39.230;9.122;2023-05-14T10:14:12;3.67;;;1.20;;
67597;SDS011;62026;39.230;9.122;2023-05-14T10:16:47;3.25;;;0.93;;
67597;SDS011;62026;39.230;9.122;2023-05-14T10:19:19;1.27;;;0.90;;
67597;SDS011;62026;39.230;9.122;2023-05-14T10:21:52;2.20;;;0.77;;
67597;SDS011;62026;39.230;9.122;2023-05-14T10:24:24;4.20;;;1.25;;
67597;SDS011;62026;39.230;9.122;2023-05-14T10:26:51;2.80;;;0.85;;
67597;SDS011;62026;39.230;9.122;2023-05-14T10:29:18;5.50;;;1.20;;
67597;SDS011;62026;39.230;9.122;2023-05-14T10:31:48;1.42;;;0.80;;
67597;SDS011;62026;39.230;9.122;2023-05-14T10:34:34;1.83;;;1.00;;
67597;SDS011;62026;39.230;9.122;2023-05-14T10:37:11;2.70;;;1.10;;
67597;SDS011;62026;39.230;9.122;2023-05-14T10:44:56;5.95;;;1.25;;
67597;SDS011;62026;39.230;9.122;2023-05-14T10:47:28;2.30;;;0.70;;
67597;SDS011;62026;39.230;9.122;2023-05-14T10:49:56;1.92;;;0.80;;
67597;SDS011;62026;39.230;9.122;2023-05-14T10:52:25;2.40;;;0.88;;
67597;SDS011;62026;39.230;9.122;2023-05-14T10:54:55;2.80;;;0.95;;
67597;SDS011;62026;39.230;9.122;2023-05-14T10:57:27;3.13;;;1.05;;
67597;SDS011;62026;39.230;9.122;2023-05-14T10:59:56;3.15;;;1.20;;
67597;SDS011;62026;39.230;9.122;2023-05-14T11:02:30;4.25;;;1.67;;
67597;SDS011;62026;39.230;9.122;2023-05-14T11:07:32;3.92;;;1.50;;
67597;SDS011;62026;39.230;9.122;2023-05-14T11:10:01;5.30;;;1.70;;
67597;SDS011;62026;39.230;9.122;2023-05-14T11:12:39;4.10;;;1.90;;
67597;SDS011;62026;39.230;9.122;2023-05-14T11:15:07;4.68;;;1.90;;
67597;SDS011;62026;39.230;9.122;2023-05-14T11:17:37;6.00;;;2.38;;
67597;SDS011;62026;39.230;9.122;2023-05-14T11:20:06;4.03;;;2.00;;
67597;SDS011;62026;39.230;9.122;2023-05-14T11:22:33;4.35;;;1.67;;
67597;SDS011;62026;39.230;9.122;2023-05-14T11:25:01;6.00;;;1.48;;
67597;SDS011;62026;39.230;9.122;2023-05-14T11:27:28;4.40;;;1.08;;
67597;SDS011;62026;39.230;9.122;2023-05-14T11:29:55;2.92;;;1.30;;
67597;SDS011;62026;39.230;9.122;2023-05-14T11:32:22;1.92;;;1.15;;
67597;SDS011;62026;39.230;9.122;2023-05-14T11:34:50;6.88;;;1.13;;
67597;SDS011;62026;39.230;9.122;2023-05-14T11:37:16;3.47;;;1.20;;
67597;SDS011;62026;39.230;9.122;2023-05-14T11:39:48;2.10;;;0.75;;
67597;SDS011;62026;39.230;9.122;2023-05-14T11:42:19;7.22;;;1.05;;
67597;SDS011;62026;39.230;9.122;2023-05-14T11:44:49;4.10;;;1.85;;
67597;SDS011;62026;39.230;9.122;2023-05-14T11:47:16;3.08;;;1.25;;
67597;SDS011;62026;39.230;9.122;2023-05-14T11:49:45;4.63;;;1.40;;
67597;SDS011;62026;39.230;9.122;2023-05-14T11:52:12;2.03;;;1.17;;
67597;SDS011;62026;39.230;9.122;2023-05-14T11:54:40;2.20;;;1.05;;
67597;SDS011;62026;39.230;9.122;2023-05-14T11:57:12;3.30;;;1.23;;
67597;SDS011;62026;39.230;9.122;2023-05-14T11:59:41;2.47;;;1.10;;
67597;SDS011;62026;39.230;9.122;2023-05-14T12:02:11;2.80;;;1.10;;
67597;SDS011;62026;39.230;9.122;2023-05-14T12:04:40;4.30;;;1.33;;
67597;SDS011;62026;39.230;9.122;2023-05-14T12:07:11;3.63;;;0.85;;
67597;SDS011;62026;39.230;9.122;2023-05-14T12:09:41;1.33;;;0.85;;
67597;SDS011;62026;39.230;9.122;2023-05-14T12:12:20;2.92;;;1.58;;
67597;SDS011;62026;39.230;9.122;2023-05-14T12:14:47;4.43;;;1.58;;
67597;SDS011;62026;39.230;9.122;2023-05-14T12:17:15;2.88;;;1.10;;
67597;SDS011;62026;39.230;9.122;2023-05-14T12:19:48;2.90;;;0.82;;
67597;SDS011;62026;39.230;9.122;2023-05-14T12:22:17;3.65;;;1.48;;
67597;SDS011;62026;39.230;9.122;2023-05-14T12:24:52;1.33;;;0.85;;
67597;SDS011;62026;39.230;9.122;2023-05-14T12:27:26;2.60;;;0.80;;
67597;SDS011;62026;39.230;9.122;2023-05-14T12:30:00;1.85;;;0.80;;
67597;SDS011;62026;39.230;9.122;2023-05-14T12:32:32;1.13;;;0.60;;
67597;SDS011;62026;39.230;9.122;2023-05-14T12:34:59;1.88;;;0.60;;
67597;SDS011;62026;39.230;9.122;2023-05-14T12:37:26;2.70;;;0.70;;
67597;SDS011;62026;39.230;9.122;2023-05-14T12:39:52;0.65;;;0.40;;
67597;SDS011;62026;39.230;9.122;2023-05-14T12:42:18;1.60;;;0.80;;
67597;SDS011;62026;39.230;9.122;2023-05-14T12:44:44;1.48;;;0.60;;
67597;SDS011;62026;39.230;9.122;2023-05-14T12:47:10;3.33;;;0.60;;
67597;SDS011;62026;39.230;9.122;2023-05-14T12:49:36;4.50;;;0.68;;
67597;SDS011;62026;39.230;9.122;2023-05-14T12:52:03;2.20;;;0.70;;
67597;SDS011;62026;39.230;9.122;2023-05-14T12:54:29;2.67;;;0.80;;
67597;SDS011;62026;39.230;9.122;2023-05-14T12:56:56;3.25;;;0.70;;
67597;SDS011;62026;39.230;9.122;2023-05-14T12:59:22;1.92;;;0.80;;
67597;SDS011;62026;39.230;9.122;2023-05-14T13:01:48;2.60;;;0.70;;
67597;SDS011;62026;39.230;9.122;2023-05-14T13:04:14;1.98;;;0.70;;
67597;SDS011;62026;39.230;9.122;2023-05-14T13:06:40;1.08;;;0.50;;
67597;SDS011;62026;39.230;9.122;2023-05-14T13:09:07;1.90;;;0.93;;
67597;SDS011;62026;39.230;9.122;2023-05-14T13:11:33;2.70;;;0.50;;
67597;SDS011;62026;39.230;9.122;2023-05-14T13:14:00;1.67;;;0.70;;
67597;SDS011;62026;39.230;9.122;2023-05-14T13:16:27;1.35;;;0.68;;
67597;SDS011;62026;39.230;9.122;2023-05-14T13:18:54;1.70;;;0.70;;
67597;SDS011;62026;39.230;9.122;2023-05-14T13:21:20;2.30;;;0.40;;
67597;SDS011;62026;39.230;9.122;2023-05-14T13:23:46;4.15;;;0.70;;
67597;SDS011;62026;39.230;9.122;2023-05-14T13:26:13;2.55;;;0.60;;
67597;SDS011;62026;39.230;9.122;2023-05-14T13:28:40;3.88;;;0.68;;
67597;SDS011;62026;39.230;9.122;2023-05-14T13:31:10;3.45;;;0.70;;
67597;SDS011;62026;39.230;9.122;2023-05-14T13:33:40;1.63;;;0.45;;
67597;SDS011;62026;39.230;9.122;2023-05-14T13:36:07;1.70;;;0.77;;
67597;SDS011;62026;39.230;9.122;2023-05-14T13:38:34;3.80;;;0.73;;
67597;SDS011;62026;39.230;9.122;2023-05-14T13:41:00;3.28;;;0.60;;
67597;SDS011;62026;39.230;9.122;2023-05-14T13:43:27;4.30;;;0.60;;
67597;SDS011;62026;39.230;9.122;2023-05-14T13:45:54;2.17;;;0.50;;
67597;SDS011;62026;39.230;9.122;2023-05-14T13:48:21;2.38;;;0.40;;
67597;SDS011;62026;39.230;9.122;2023-05-14T13:50:48;2.00;;;0.60;;
67597;SDS011;62026;39.230;9.122;2023-05-14T13:53:16;2.17;;;0.50;;
67597;SDS011;62026;39.230;9.122;2023-05-14T13:55:44;4.38;;;0.47;;
67597;SDS011;62026;39.230;9.122;2023-05-14T13:58:10;2.67;;;0.50;;
67597;SDS011;62026;39.230;9.122;2023-05-14T14:00:36;1.38;;;0.50;;
67597;SDS011;62026;39.230;9.122;2023-05-14T14:03:02;2.60;;;0.50;;
67597;SDS011;62026;39.230;9.122;2023-05-14T14:05:28;4.88;;;0.60;;
67597;SDS011;62026;39.230;9.122;2023-05-14T14:07:55;3.47;;;0.85;;
67597;SDS011;62026;39.230;9.122;2023-05-14T14:10:22;1.55;;;0.50;;
67597;SDS011;62026;39.230;9.122;2023-05-14T14:12:48;5.43;;;0.75;;
67597;SDS011;62026;39.230;9.122;2023-05-14T14:15:14;2.40;;;0.65;;
67597;SDS011;62026;39.230;9.122;2023-05-14T14:17:40;1.88;;;0.50;;
67597;SDS011;62026;39.230;9.122;2023-05-14T14:20:07;2.30;;;0.70;;
67597;SDS011;62026;39.230;9.122;2023-05-14T14:22:34;3.25;;;0.70;;
67597;SDS011;62026;39.230;9.122;2023-05-14T14:25:01;1.52;;;0.40;;
67597;SDS011;62026;39.230;9.122;2023-05-14T14:27:28;2.30;;;0.50;;
67597;SDS011;62026;39.230;9.122;2023-05-14T14:29:58;1.92;;;0.50;;
67597;SDS011;62026;39.230;9.122;2023-05-14T14:32:25;0.75;;;0.50;;
67597;SDS011;62026;39.230;9.122;2023-05-14T14:34:50;2.20;;;0.60;;
67597;SDS011;62026;39.230;9.122;2023-05-14T14:37:16;1.65;;;0.35;;
67597;SDS011;62026;39.230;9.122;2023-05-14T14:39:42;1.60;;;0.50;;
67597;SDS011;62026;39.230;9.122;2023-05-14T14:42:08;2.22;;;0.40;;
67597;SDS011;62026;39.230;9.122;2023-05-14T14:44:34;2.13;;;0.52;;
67597;SDS011;62026;39.230;9.122;2023-05-14T14:47:00;1.67;;;0.55;;
67597;SDS011;62026;39.230;9.122;2023-05-14T14:49:26;1.05;;;0.40;;
67597;SDS011;62026;39.230;9.122;2023-05-14T14:51:52;2.83;;;0.85;;
67597;SDS011;62026;39.230;9.122;2023-05-14T14:54:18;5.68;;;0.60;;
67597;SDS011;62026;39.230;9.122;2023-05-14T14:56:44;2.13;;;0.73;;
67597;SDS011;62026;39.230;9.122;2023-05-14T14:59:13;2.67;;;0.65;;
67597;SDS011;62026;39.230;9.122;2023-05-14T15:01:39;3.55;;;0.80;;
67597;SDS011;62026;39.230;9.122;2023-05-14T15:04:05;2.40;;;0.50;;
67597;SDS011;62026;39.230;9.122;2023-05-14T15:06:31;2.65;;;0.80;;